Time;durP1;ratioP1;P1;durP2;ratioP2;P2;SDS_P1;SDS_P2;PMS_P1;PMS_P2;Temp;Humidity;BMP_temperature;BMP_pressure;BME280_temperature;BME280_humidity;BME280_pressure;Samples;Min_cycle;Max_cycle;Signal;HPM_P1;HPM_P2
2023/06/13 00:01:49;;;;;;;4.32;2.80;;;10.50;99.90;;;;;;4942895;28;20071;-64
2023/06/13 00:04:21;;;;;;;4.57;2.40;;;10.50;99.90;;;;;;4944628;28;20130;-69
2023/06/13 00:06:56;;;;;;;3.15;2.63;;;10.40;99.90;;;;;;4937374;28;20047;-63
2023/06/13 00:09:24;;;;;;;3.50;2.63;;;10.40;99.90;;;;;;4938394;28;20074;-71
2023/06/13 00:11:52;;;;;;;4.57;3.20;;;10.30;99.90;;;;;;4940561;28;20043;-64
2023/06/13 00:14:21;;;;;;;3.13;2.80;;;10.30;99.90;;;;;;4939751;28;20059;-66
2023/06/13 00:16:50;;;;;;;3.45;2.08;;;10.30;99.90;;;;;;4935291;28;20086;-63
2023/06/13 00:19:18;;;;;;;2.65;2.38;;;10.20;99.90;;;;;;4942038;28;20039;-68
2023/06/13 00:21:46;;;;;;;2.60;2.40;;;10.20;99.90;;;;;;4939245;28;20158;-71
2023/06/13 00:24:13;;;;;;;4.55;2.63;;;10.20;99.90;;;;;;4933043;28;20051;-68
2023/06/13 00:26:40;;;;;;;3.17;2.38;;;10.20;99.90;;;;;;4936940;28;20071;-64
2023/06/13 00:29:07;;;;;;;3.13;2.78;;;10.20;99.90;;;;;;4941020;28;20043;-67
2023/06/13 00:31:34;;;;;;;2.95;2.47;;;10.20;99.90;;;;;;4934995;28;20064;-67
2023/06/13 00:34:01;;;;;;;3.20;2.53;;;10.10;99.90;;;;;;4953587;28;20051;-68
2023/06/13 00:36:28;;;;;;;3.58;3.28;;;10.10;99.90;;;;;;4936022;28;20063;-64
2023/06/13 00:38:57;;;;;;;2.65;2.45;;;10.10;99.90;;;;;;4936784;28;20039;-65
2023/06/13 00:41:24;;;;;;;3.97;2.88;;;10.10;99.90;;;;;;4939867;28;20047;-65
2023/06/13 00:43:51;;;;;;;2.95;2.60;;;10.00;99.90;;;;;;4935493;28;20053;-64
2023/06/13 00:46:32;;;;;;;2.50;2.25;;;10.00;99.90;;;;;;4940484;28;20125;-66
2023/06/13 00:49:01;;;;;;;2.38;2.17;;;10.00;99.90;;;;;;4938045;28;20151;-64
2023/06/13 00:51:29;;;;;;;3.17;2.63;;;10.00;99.90;;;;;;4950237;28;20075;-65
2023/06/13 00:53:58;;;;;;;3.85;2.70;;;9.90;99.90;;;;;;4942097;28;20047;-67
2023/06/13 00:56:29;;;;;;;3.15;2.95;;;9.90;99.90;;;;;;4937089;28;20557;-63
2023/06/13 00:58:59;;;;;;;3.22;2.65;;;9.90;99.90;;;;;;4941641;28;20473;-67
2023/06/13 01:01:27;;;;;;;3.03;2.47;;;9.90;99.90;;;;;;4940235;28;20047;-64
2023/06/13 01:03:55;;;;;;;5.13;3.28;;;9.90;99.90;;;;;;4936393;28;20547;-65
2023/06/13 01:06:24;;;;;;;2.58;2.33;;;9.80;99.90;;;;;;4945601;28;20039;-66
2023/06/13 01:08:58;;;;;;;3.45;3.03;;;9.80;99.90;;;;;;4947446;28;20142;-65
2023/06/13 01:11:44;;;;;;;5.18;2.78;;;9.80;99.90;;;;;;4953221;28;20047;-63
2023/06/13 01:14:31;;;;;;;3.28;2.97;;;9.80;99.90;;;;;;4935827;28;20426;-66
2023/06/13 01:17:25;;;;;;;3.40;3.10;;;9.70;99.90;;;;;;4941785;28;20047;-64
2023/06/13 01:19:57;;;;;;;3.85;3.55;;;9.80;99.90;;;;;;4937299;28;20043;-69
2023/06/13 01:22:54;;;;;;;5.13;3.17;;;9.80;99.90;;;;;;4935591;28;20043;-73
2023/06/13 01:25:48;;;;;;;2.85;2.65;;;9.80;99.90;;;;;;4954708;28;20047;-67
2023/06/13 01:28:15;;;;;;;3.60;3.22;;;9.80;99.90;;;;;;4954720;28;20142;-66
2023/06/13 01:30:45;;;;;;;3.55;3.13;;;9.70;99.90;;;;;;4934989;28;20046;-68
2023/06/13 01:33:14;;;;;;;6.32;2.83;;;9.70;99.90;;;;;;4939354;28;20122;-64
2023/06/13 01:35:41;;;;;;;3.42;3.13;;;9.70;99.90;;;;;;4939316;28;20062;-65
2023/06/13 01:38:09;;;;;;;3.10;2.80;;;9.70;99.90;;;;;;4941480;28;20036;-63
2023/06/13 01:40:36;;;;;;;3.28;3.05;;;9.60;99.90;;;;;;4938577;28;20805;-66
2023/06/13 01:43:03;;;;;;;3.53;2.72;;;9.60;99.90;;;;;;4952084;28;20121;-62
2023/06/13 01:45:30;;;;;;;2.70;2.50;;;9.60;99.90;;;;;;4937544;28;20102;-67
2023/06/13 01:48:20;;;;;;;3.28;2.97;;;9.60;99.90;;;;;;4936782;28;20094;-67
2023/06/13 01:50:53;;;;;;;5.43;3.33;;;9.60;99.90;;;;;;4925084;28;20102;-68
2023/06/13 01:53:27;;;;;;;4.28;3.40;;;9.60;99.90;;;;;;4940465;28;20047;-64
2023/06/13 01:56:02;;;;;;;3.65;3.00;;;9.50;99.90;;;;;;4938923;28;20075;-65
2023/06/13 01:58:48;;;;;;;3.55;2.70;;;9.50;99.90;;;;;;4935136;28;20439;-65
2023/06/13 02:01:16;;;;;;;3.15;2.95;;;9.50;99.90;;;;;;4923223;29;20130;-64
2023/06/13 02:03:43;;;;;;;5.93;3.58;;;9.40;99.90;;;;;;4933463;28;20066;-66
2023/06/13 02:06:10;;;;;;;4.70;3.53;;;9.40;99.90;;;;;;4937908;28;20147;-65
2023/06/13 02:08:37;;;;;;;4.32;2.88;;;9.40;99.90;;;;;;4940849;28;20067;-67
2023/06/13 02:11:04;;;;;;;3.30;2.88;;;9.40;99.90;;;;;;4942923;28;20296;-67
2023/06/13 02:13:31;;;;;;;5.65;3.22;;;9.40;99.90;;;;;;4939267;28;20058;-64
2023/06/13 02:15:58;;;;;;;4.18;2.80;;;9.40;99.90;;;;;;4957394;28;20475;-63
2023/06/13 02:18:27;;;;;;;5.13;3.30;;;9.30;99.90;;;;;;4937379;28;20093;-64
2023/06/13 02:20:54;;;;;;;3.55;3.25;;;9.30;99.90;;;;;;4955073;28;20083;-64
2023/06/13 02:23:23;;;;;;;3.97;2.95;;;9.20;99.90;;;;;;4942015;28;20047;-67
2023/06/13 02:25:51;;;;;;;5.28;2.78;;;9.30;99.90;;;;;;4944417;28;20051;-63
2023/06/13 02:28:19;;;;;;;3.70;3.38;;;9.30;99.90;;;;;;4938055;28;20058;-65
2023/06/13 02:30:47;;;;;;;3.67;3.28;;;9.30;99.90;;;;;;4937656;28;20062;-69
2023/06/13 02:33:15;;;;;;;7.80;3.70;;;9.30;99.90;;;;;;4936658;28;20070;-66
2023/06/13 02:35:45;;;;;;;3.00;2.78;;;9.30;99.90;;;;;;4942295;28;20054;-67
2023/06/13 02:38:12;;;;;;;3.60;3.28;;;9.30;99.90;;;;;;4938062;28;20047;-65
2023/06/13 02:40:39;;;;;;;3.40;2.75;;;9.40;99.90;;;;;;4939463;28;20131;-62
2023/06/13 02:43:09;;;;;;;3.00;2.70;;;9.30;99.90;;;;;;4940371;28;20513;-64
2023/06/13 02:45:36;;;;;;;4.93;3.15;;;9.40;99.90;;;;;;4940522;28;20134;-63
2023/06/13 02:48:03;;;;;;;4.10;3.45;;;9.40;99.90;;;;;;4952542;28;20537;-66
2023/06/13 02:50:30;;;;;;;4.43;3.55;;;9.40;99.90;;;;;;4939787;28;20387;-63
2023/06/13 02:52:57;;;;;;;3.70;3.40;;;9.50;99.90;;;;;;4941384;28;20127;-65
2023/06/13 02:55:24;;;;;;;3.45;3.15;;;9.50;99.90;;;;;;4939418;28;20094;-66
2023/06/13 02:57:51;;;;;;;4.03;3.15;;;9.50;99.90;;;;;;4938194;28;20050;-63
2023/06/13 03:00:19;;;;;;;3.55;3.20;;;9.60;99.90;;;;;;4953002;28;20048;-66
2023/06/13 03:03:02;;;;;;;3.22;2.92;;;9.60;99.90;;;;;;4940725;28;20230;-70
2023/06/13 03:05:32;;;;;;;3.25;3.05;;;9.60;99.90;;;;;;4939760;28;20055;-65
2023/06/13 03:08:00;;;;;;;3.33;3.08;;;9.60;99.90;;;;;;4940672;28;20527;-70
2023/06/13 03:10:28;;;;;;;2.88;2.60;;;9.60;99.90;;;;;;4941288;28;20119;-69
2023/06/13 03:12:55;;;;;;;3.15;2.92;;;9.70;99.90;;;;;;4941042;28;20118;-63
2023/06/13 03:15:22;;;;;;;3.95;3.10;;;9.70;99.90;;;;;;4942003;28;20114;-64
2023/06/13 03:17:49;;;;;;;3.90;2.85;;;9.70;99.90;;;;;;4956796;28;20047;-67
2023/06/13 03:20:16;;;;;;;5.65;2.80;;;9.80;99.90;;;;;;4951954;28;20051;-69
2023/06/13 03:22:56;;;;;;;3.33;3.00;;;9.80;99.90;;;;;;4939464;28;20509;-64
2023/06/13 03:25:24;;;;;;;6.22;3.72;;;9.80;99.90;;;;;;4956813;28;20055;-67
2023/06/13 03:27:51;;;;;;;5.78;3.67;;;9.90;99.90;;;;;;4940145;28;20039;-64
2023/06/13 03:30:18;;;;;;;3.50;2.72;;;9.90;99.90;;;;;;4937392;28;20055;-67
2023/06/13 03:32:45;;;;;;;3.05;2.75;;;9.90;99.90;;;;;;4938725;28;20058;-72
2023/06/13 03:35:13;;;;;;;3.05;2.85;;;9.90;99.90;;;;;;4955338;28;20154;-63
2023/06/13 03:37:40;;;;;;;7.20;3.50;;;9.90;99.90;;;;;;4940006;28;20046;-63
2023/06/13 03:40:07;;;;;;;5.07;3.10;;;10.00;99.90;;;;;;4936036;28;20056;-72
2023/06/13 03:42:34;;;;;;;3.90;3.25;;;10.00;99.90;;;;;;4936915;28;20333;-67
2023/06/13 03:45:01;;;;;;;5.13;4.07;;;10.00;99.90;;;;;;4940286;28;20055;-63
2023/06/13 03:47:28;;;;;;;6.35;3.17;;;10.10;99.90;;;;;;4939630;28;20044;-72
2023/06/13 03:49:55;;;;;;;6.63;3.00;;;10.10;99.90;;;;;;4938676;28;20143;-63
2023/06/13 03:52:22;;;;;;;3.63;2.92;;;10.20;99.90;;;;;;4943110;28;20494;-72
2023/06/13 03:54:51;;;;;;;3.58;3.20;;;10.20;99.90;;;;;;4946718;28;20405;-68
2023/06/13 03:57:18;;;;;;;3.55;3.00;;;10.30;99.90;;;;;;4942065;28;20055;-67
2023/06/13 03:59:45;;;;;;;4.90;2.88;;;10.40;99.90;;;;;;4953192;28;20066;-64
2023/06/13 04:02:13;;;;;;;3.42;2.97;;;10.50;99.90;;;;;;4942002;28;20142;-67
2023/06/13 04:04:44;;;;;;;3.97;3.55;;;10.60;99.90;;;;;;4939314;28;20675;-64
2023/06/13 04:07:11;;;;;;;2.78;2.58;;;10.70;99.90;;;;;;4941046;28;20059;-66
2023/06/13 04:09:38;;;;;;;5.15;2.70;;;10.80;99.90;;;;;;4938544;28;20044;-70
2023/06/13 04:12:06;;;;;;;4.13;2.35;;;10.90;99.90;;;;;;4937707;28;20837;-63
2023/06/13 04:14:32;;;;;;;4.15;2.97;;;11.00;99.90;;;;;;4953046;28;20103;-68
2023/06/13 04:17:00;;;;;;;2.30;2.10;;;11.10;99.90;;;;;;4936399;28;20055;-69
2023/06/13 04:19:27;;;;;;;5.43;2.50;;;11.20;99.90;;;;;;4944265;28;20134;-67
2023/06/13 04:21:54;;;;;;;5.38;2.47;;;11.30;99.90;;;;;;4941197;28;20043;-64
2023/06/13 04:24:21;;;;;;;3.45;2.42;;;11.50;99.90;;;;;;4936225;28;20544;-74
2023/06/13 04:26:49;;;;;;;4.72;1.92;;;11.50;99.90;;;;;;4939477;28;20769;-67
2023/06/13 04:29:18;;;;;;;4.25;2.65;;;11.70;99.90;;;;;;4937246;28;20047;-65
2023/06/13 04:31:46;;;;;;;5.10;2.53;;;11.80;99.90;;;;;;4941040;28;20051;-63
2023/06/13 04:34:14;;;;;;;4.70;2.78;;;11.90;99.90;;;;;;4952605;28;20047;-67
2023/06/13 04:36:44;;;;;;;2.40;2.20;;;12.10;99.90;;;;;;4941973;28;20039;-63
2023/06/13 04:39:12;;;;;;;4.45;2.78;;;12.20;99.90;;;;;;4940426;28;20041;-64
2023/06/13 04:41:43;;;;;;;2.85;2.00;;;12.40;99.90;;;;;;4942305;28;20049;-68
2023/06/13 04:44:10;;;;;;;3.10;1.80;;;12.50;99.90;;;;;;4937128;28;20035;-65
2023/06/13 04:46:43;;;;;;;6.00;2.50;;;12.60;99.90;;;;;;4941616;28;20047;-66
2023/06/13 04:49:11;;;;;;;3.60;2.83;;;12.80;99.90;;;;;;4938489;28;20075;-65
2023/06/13 04:51:40;;;;;;;3.30;1.85;;;12.90;99.90;;;;;;4944211;28;20055;-67
2023/06/13 04:54:09;;;;;;;3.00;2.40;;;13.00;99.90;;;;;;4942811;28;20079;-63
2023/06/13 04:56:37;;;;;;;2.47;2.28;;;13.10;99.90;;;;;;4942321;28;20047;-67
2023/06/13 04:59:08;;;;;;;3.47;2.10;;;13.30;99.90;;;;;;4938916;28;20039;-65
2023/06/13 05:01:37;;;;;;;2.53;2.08;;;13.40;99.90;;;;;;4945404;28;20051;-67
2023/06/13 05:04:05;;;;;;;5.07;2.63;;;13.50;99.90;;;;;;4941518;28;20067;-68
2023/06/13 05:06:34;;;;;;;2.85;2.33;;;13.60;99.90;;;;;;4940209;28;20047;-67
2023/06/13 05:09:01;;;;;;;2.92;1.95;;;13.70;99.90;;;;;;4943861;28;20055;-64
2023/06/13 05:11:29;;;;;;;3.00;2.08;;;13.80;99.90;;;;;;4938161;28;20047;-66
2023/06/13 05:13:55;;;;;;;2.58;1.45;;;13.90;99.90;;;;;;4942922;28;20049;-64
2023/06/13 05:16:26;;;;;;;2.78;2.53;;;14.00;99.90;;;;;;4937959;28;20075;-67
2023/06/13 05:18:57;;;;;;;2.72;2.47;;;14.10;99.90;;;;;;4942257;28;20442;-64
2023/06/13 05:21:24;;;;;;;3.92;1.95;;;14.20;99.90;;;;;;4935966;28;20054;-67
2023/06/13 05:23:52;;;;;;;3.10;2.22;;;14.30;99.90;;;;;;4938951;28;20053;-69
2023/06/13 05:26:20;;;;;;;1.80;1.70;;;14.40;99.90;;;;;;4940943;28;20054;-70
2023/06/13 05:28:47;;;;;;;2.63;1.77;;;14.50;99.90;;;;;;4942987;28;20103;-63
2023/06/13 05:31:14;;;;;;;4.00;2.15;;;14.50;99.90;;;;;;4936458;28;20371;-66
2023/06/13 05:33:41;;;;;;;3.13;2.72;;;14.60;99.90;;;;;;4940216;28;20043;-71
2023/06/13 05:36:08;;;;;;;3.72;2.08;;;14.60;99.90;;;;;;4943078;28;20048;-63
2023/06/13 05:38:36;;;;;;;3.92;2.25;;;14.70;99.90;;;;;;4940443;28;20462;-64
2023/06/13 05:41:03;;;;;;;4.47;2.38;;;14.80;99.90;;;;;;4944718;28;20130;-67
2023/06/13 05:43:30;;;;;;;7.90;2.35;;;14.90;99.90;;;;;;4933910;28;20048;-67
2023/06/13 05:45:57;;;;;;;4.20;3.00;;;15.00;99.90;;;;;;4936564;28;20453;-65
2023/06/13 05:48:24;;;;;;;3.28;2.08;;;15.10;99.90;;;;;;4940676;28;20094;-66
2023/06/13 05:50:51;;;;;;;7.90;2.70;;;15.10;99.90;;;;;;4943790;28;20471;-65
2023/06/13 05:53:18;;;;;;;3.42;2.35;;;15.20;99.90;;;;;;4938190;28;20051;-66
2023/06/13 05:55:45;;;;;;;4.53;3.03;;;15.30;99.90;;;;;;4944088;28;20055;-67
2023/06/13 05:58:12;;;;;;;5.07;2.42;;;15.40;99.90;;;;;;4940328;28;20046;-67
2023/06/13 06:00:40;;;;;;;5.20;2.40;;;15.60;99.90;;;;;;4938832;28;20051;-64
2023/06/13 06:03:08;;;;;;;4.53;2.35;;;15.70;99.90;;;;;;4937208;28;20056;-65
2023/06/13 06:05:35;;;;;;;2.35;2.13;;;15.80;99.90;;;;;;4935109;28;20131;-65
2023/06/13 06:08:01;;;;;;;5.88;2.20;;;15.90;99.90;;;;;;4933232;28;20312;-64
2023/06/13 06:10:28;;;;;;;4.00;2.50;;;15.90;99.60;;;;;;4936977;28;20051;-65
2023/06/13 06:12:55;;;;;;;5.57;3.40;;;16.00;99.90;;;;;;4944193;28;20110;-64
2023/06/13 06:15:22;;;;;;;3.08;2.58;;;16.00;99.90;;;;;;4942586;28;20066;-64
2023/06/13 06:17:50;;;;;;;4.18;3.78;;;15.90;99.90;;;;;;4939412;28;20043;-66
2023/06/13 06:20:18;;;;;;;2.85;2.47;;;15.80;99.90;;;;;;4932993;28;20067;-67
2023/06/13 06:22:45;;;;;;;4.70;2.20;;;15.80;99.90;;;;;;4936544;28;20134;-64
2023/06/13 06:25:19;;;;;;;4.47;3.38;;;15.80;99.90;;;;;;4936715;28;20087;-67
2023/06/13 06:27:50;;;;;;;4.07;3.20;;;15.80;99.90;;;;;;4940507;28;20506;-63
2023/06/13 06:30:17;;;;;;;4.78;3.08;;;15.80;99.90;;;;;;4935838;28;20059;-67
2023/06/13 06:32:44;;;;;;;8.20;3.35;;;15.70;99.90;;;;;;4934241;28;20402;-63
2023/06/13 06:35:11;;;;;;;5.63;3.00;;;15.70;99.90;;;;;;4938261;28;20560;-67
2023/06/13 06:37:38;;;;;;;3.67;2.30;;;15.70;99.90;;;;;;4935329;28;20039;-65
2023/06/13 06:40:06;;;;;;;9.10;3.05;;;15.80;99.90;;;;;;4939393;28;20089;-63
2023/06/13 06:42:33;;;;;;;8.85;3.13;;;15.80;99.90;;;;;;4943601;28;20454;-69
2023/06/13 06:45:12;;;;;;;5.25;2.67;;;15.80;99.90;;;;;;4950979;28;20048;-70
2023/06/13 06:47:41;;;;;;;3.70;2.80;;;15.70;99.90;;;;;;4937949;28;20173;-67
2023/06/13 06:50:08;;;;;;;4.03;2.95;;;15.70;99.90;;;;;;4939684;28;20047;-65
2023/06/13 06:52:35;;;;;;;3.75;3.13;;;15.80;99.90;;;;;;4943983;28;20046;-67
2023/06/13 06:55:02;;;;;;;3.70;2.85;;;15.80;99.90;;;;;;4941022;28;20113;-68
2023/06/13 06:57:29;;;;;;;3.45;2.30;;;15.90;99.90;;;;;;4947428;28;20395;-66
2023/06/13 06:59:56;;;;;;;2.60;2.33;;;15.90;99.90;;;;;;4939913;28;20102;-70
2023/06/13 07:02:23;;;;;;;2.92;2.58;;;16.00;99.90;;;;;;4943955;28;20058;-64
2023/06/13 07:04:50;;;;;;;4.53;2.67;;;16.10;99.90;;;;;;4941785;28;20050;-68
2023/06/13 07:07:17;;;;;;;3.85;2.60;;;16.10;99.90;;;;;;4941167;28;20482;-69
2023/06/13 07:09:44;;;;;;;6.72;3.00;;;16.10;99.90;;;;;;4940139;28;20043;-66
2023/06/13 07:12:11;;;;;;;3.03;2.30;;;16.10;99.90;;;;;;4941167;28;20158;-67
2023/06/13 07:14:38;;;;;;;2.88;2.58;;;16.20;99.90;;;;;;4942112;28;20039;-66
2023/06/13 07:17:05;;;;;;;3.10;2.85;;;16.20;99.90;;;;;;4941347;28;20047;-65
2023/06/13 07:19:32;;;;;;;2.83;2.55;;;16.20;99.90;;;;;;4938645;28;20039;-69
2023/06/13 07:21:59;;;;;;;4.75;2.58;;;16.30;99.90;;;;;;4939824;28;20146;-70
2023/06/13 07:24:31;;;;;;;2.95;2.55;;;16.30;99.90;;;;;;4940381;28;20066;-64
2023/06/13 07:26:58;;;;;;;4.85;2.20;;;16.40;99.90;;;;;;4939023;28;20445;-63
2023/06/13 07:29:25;;;;;;;4.55;2.75;;;16.40;99.90;;;;;;4945197;28;20039;-68
2023/06/13 07:31:52;;;;;;;3.28;2.28;;;16.50;99.90;;;;;;4941330;28;20047;-64
2023/06/13 07:34:19;;;;;;;4.43;2.83;;;16.50;99.90;;;;;;4938470;28;20493;-66
2023/06/13 07:36:54;;;;;;;6.18;2.92;;;16.50;99.90;;;;;;4941676;28;20047;-66
2023/06/13 07:39:21;;;;;;;3.08;2.55;;;16.50;99.90;;;;;;4940223;28;20056;-64
2023/06/13 07:41:49;;;;;;;3.53;2.25;;;16.60;99.90;;;;;;4935474;28;20051;-66
2023/06/13 07:44:17;;;;;;;5.45;2.70;;;16.60;99.80;;;;;;4939496;28;20044;-72
2023/06/13 07:46:44;;;;;;;10.77;4.70;;;16.60;99.90;;;;;;4941385;28;20157;-65
2023/06/13 07:49:11;;;;;;;3.33;2.08;;;16.60;99.90;;;;;;4938758;28;20134;-65
2023/06/13 07:51:39;;;;;;;2.28;2.05;;;16.60;99.90;;;;;;4936617;28;20049;-65
2023/06/13 07:54:06;;;;;;;3.42;2.65;;;16.70;99.90;;;;;;4942458;28;20047;-66
2023/06/13 07:56:33;;;;;;;3.47;2.22;;;16.80;99.80;;;;;;4939304;28;20453;-64
2023/06/13 07:59:00;;;;;;;2.97;2.15;;;16.90;99.60;;;;;;4947532;28;20043;-68
2023/06/13 08:01:27;;;;;;;3.42;2.47;;;16.90;99.50;;;;;;4938702;28;20058;-63
2023/06/13 08:03:54;;;;;;;6.18;2.50;;;17.00;99.00;;;;;;4944722;28;20288;-66
2023/06/13 08:06:21;;;;;;;4.55;2.72;;;17.00;98.70;;;;;;4940443;28;20069;-67
2023/06/13 08:08:48;;;;;;;5.32;2.67;;;17.20;98.70;;;;;;4940893;28;20110;-64
2023/06/13 08:11:15;;;;;;;3.10;2.45;;;17.20;98.90;;;;;;4937254;28;20134;-67
2023/06/13 08:13:42;;;;;;;2.75;2.55;;;17.30;98.10;;;;;;4943898;28;20628;-64
2023/06/13 08:16:09;;;;;;;3.58;2.05;;;17.40;97.80;;;;;;4932226;28;20051;-63
2023/06/13 08:18:37;;;;;;;2.50;2.10;;;17.50;97.70;;;;;;4942109;28;20073;-65
2023/06/13 08:21:04;;;;;;;3.00;2.25;;;17.60;96.90;;;;;;4939131;28;20050;-66
2023/06/13 08:23:31;;;;;;;5.65;2.28;;;17.70;96.80;;;;;;4939930;28;20058;-65
2023/06/13 08:25:57;;;;;;;2.97;2.03;;;17.80;96.20;;;;;;4941306;28;20150;-67
2023/06/13 08:28:25;;;;;;;5.60;2.72;;;17.80;96.30;;;;;;4943381;28;20891;-65
2023/06/13 08:30:52;;;;;;;3.47;2.65;;;17.90;95.90;;;;;;4942582;28;20043;-64
2023/06/13 08:33:35;;;;;;;7.88;2.78;;;17.90;95.80;;;;;;4937744;28;20043;-66
2023/06/13 08:36:02;;;;;;;3.63;1.77;;;18.00;95.30;;;;;;4936267;28;20059;-67
2023/06/13 08:38:41;;;;;;;2.50;2.15;;;18.10;95.40;;;;;;4939843;28;20043;-67
2023/06/13 08:41:19;;;;;;;2.88;2.58;;;18.20;95.10;;;;;;4935615;28;20106;-64
2023/06/13 08:43:46;;;;;;;2.65;2.10;;;18.10;95.30;;;;;;4940276;28;20114;-66
2023/06/13 08:46:14;;;;;;;2.13;1.92;;;18.20;95.60;;;;;;4940466;28;20058;-66
2023/06/13 08:48:42;;;;;;;3.25;2.33;;;18.20;95.40;;;;;;4934995;28;20062;-67
2023/06/13 08:51:14;;;;;;;2.80;2.10;;;18.20;96.10;;;;;;4940706;28;20047;-66
2023/06/13 08:53:51;;;;;;;2.88;2.20;;;18.10;96.90;;;;;;4939146;28;20047;-64
2023/06/13 08:56:22;;;;;;;3.92;2.30;;;18.10;97.10;;;;;;4933272;28;20394;-69
2023/06/13 08:59:03;;;;;;;;;;;18.20;96.80;;;;;;4938081;28;20043;-63
2023/06/13 09:01:31;;;;;;;4.43;2.03;;;18.20;97.20;;;;;;4938324;28;20025;-64
2023/06/13 09:03:59;;;;;;;3.75;3.45;;;18.30;96.80;;;;;;4942172;28;21217;-68
2023/06/13 09:06:27;;;;;;;3.17;2.33;;;18.30;96.80;;;;;;4941388;28;20479;-66
2023/06/13 09:08:56;;;;;;;3.20;2.47;;;18.40;97.00;;;;;;4943723;28;20058;-64
2023/06/13 09:11:23;;;;;;;2.83;1.80;;;18.40;96.80;;;;;;4937451;28;20051;-70
2023/06/13 09:13:53;;;;;;;3.70;2.70;;;18.50;96.20;;;;;;4939977;28;20468;-64
2023/06/13 09:16:20;;;;;;;3.17;2.15;;;18.50;96.10;;;;;;4938872;28;20078;-69
2023/06/13 09:18:51;;;;;;;4.45;3.15;;;18.40;96.00;;;;;;4939233;28;20051;-64
2023/06/13 09:21:20;;;;;;;3.85;2.08;;;18.50;95.60;;;;;;4936677;28;20071;-71
2023/06/13 09:23:49;;;;;;;3.60;2.28;;;18.50;96.10;;;;;;4937120;28;20055;-65
2023/06/13 09:26:16;;;;;;;5.53;3.15;;;18.70;96.40;;;;;;4939567;28;20074;-67
2023/06/13 09:28:47;;;;;;;3.05;1.73;;;18.70;96.80;;;;;;4935428;28;20078;-71
2023/06/13 09:31:14;;;;;;;;;;;18.70;95.50;;;;;;4935418;28;20111;-66
2023/06/13 09:33:45;;;;;;;4.22;2.50;;;18.70;95.40;;;;;;4940157;28;20020;-64
2023/06/13 09:36:12;;;;;;;3.67;2.28;;;18.70;95.10;;;;;;4938592;28;20532;-66
2023/06/13 09:38:41;;;;;;;1.90;1.80;;;18.80;94.90;;;;;;4943645;28;20142;-71
2023/06/13 09:41:12;;;;;;;3.03;1.70;;;19.00;94.40;;;;;;4940965;28;20411;-67
2023/06/13 09:43:40;;;;;;;2.40;2.20;;;19.00;93.50;;;;;;4938372;28;20190;-66
2023/06/13 09:46:10;;;;;;;4.70;1.83;;;19.00;93.10;;;;;;4930983;28;20480;-64
2023/06/13 09:48:37;;;;;;;;;;;19.10;93.20;;;;;;4940111;28;20039;-65
2023/06/13 09:51:11;;;;;;;16.63;3.28;;;19.20;93.70;;;;;;4938472;28;19972;-67
2023/06/13 09:53:38;;;;;;;3.60;1.98;;;19.20;94.00;;;;;;4938262;28;20498;-66
2023/06/13 09:56:10;;;;;;;5.30;1.88;;;19.20;93.50;;;;;;4936030;28;20150;-67
2023/06/13 09:58:38;;;;;;;4.20;3.13;;;19.30;93.20;;;;;;4938887;28;20058;-68
2023/06/13 10:01:11;;;;;;;1.83;1.73;;;19.30;94.50;;;;;;4938332;28;20050;-65
2023/06/13 10:03:39;;;;;;;3.83;1.75;;;19.20;94.30;;;;;;4941098;28;20117;-66
2023/06/13 10:06:06;;;;;;;2.65;1.98;;;19.30;95.20;;;;;;4938824;28;20047;-66
2023/06/13 10:08:34;;;;;;;2.78;1.90;;;19.30;95.50;;;;;;4937898;28;20042;-65
2023/06/13 10:11:12;;;;;;;1.80;1.70;;;19.30;95.50;;;;;;4934984;28;20102;-68
2023/06/13 10:13:46;;;;;;;2.80;2.13;;;19.30;95.90;;;;;;4934893;28;20087;-64
2023/06/13 10:16:14;;;;;;;4.38;3.17;;;19.40;95.80;;;;;;4936610;28;20039;-63
2023/06/13 10:18:44;;;;;;;3.72;2.42;;;19.40;95.60;;;;;;4941904;28;20070;-66
2023/06/13 10:21:13;;;;;;;3.33;2.00;;;19.40;95.00;;;;;;4942223;28;20071;-64
2023/06/13 10:23:48;;;;;;;5.15;2.08;;;19.40;95.30;;;;;;4939369;28;20123;-64
2023/06/13 10:26:39;;;;;;;3.17;2.22;;;19.30;95.10;;;;;;4945546;28;20043;-65
2023/06/13 10:29:35;;;;;;;5.75;2.67;;;19.30;95.40;;;;;;4941838;28;20046;-71
2023/06/13 10:32:33;;;;;;;2.20;2.00;;;19.20;95.60;;;;;;4938427;28;20486;-67
2023/06/13 10:35:04;;;;;;;2.45;1.90;;;19.40;95.30;;;;;;4942468;28;20062;-65
2023/06/13 10:37:53;;;;;;;2.50;2.08;;;19.50;94.80;;;;;;4944325;28;20054;-67
2023/06/13 10:40:43;;;;;;;3.05;2.25;;;19.50;95.20;;;;;;4944623;28;20095;-64
2023/06/13 10:43:16;;;;;;;2.45;2.25;;;19.60;95.10;;;;;;4935662;28;20043;-63
2023/06/13 10:45:45;;;;;;;2.60;1.50;;;19.50;94.20;;;;;;4939133;28;20141;-64
2023/06/13 10:48:12;;;;;;;1.60;1.50;;;19.70;93.30;;;;;;4939337;28;20043;-66
2023/06/13 10:50:41;;;;;;;2.72;1.92;;;19.50;94.50;;;;;;4940512;28;20051;-64
2023/06/13 10:53:09;;;;;;;3.70;1.38;;;19.50;94.80;;;;;;4950010;28;20051;-66
2023/06/13 10:55:40;;;;;;;2.65;1.83;;;19.40;96.00;;;;;;4951583;28;20134;-63
2023/06/13 10:58:12;;;;;;;2.30;1.83;;;19.40;95.70;;;;;;4944734;28;20065;-72
2023/06/13 11:00:39;;;;;;;3.75;1.83;;;19.40;95.80;;;;;;4940720;28;20048;-72
2023/06/13 11:03:11;;;;;;;3.70;1.83;;;19.50;95.20;;;;;;4943631;28;20217;-64
2023/06/13 11:05:44;;;;;;;2.35;1.52;;;19.60;93.60;;;;;;4941547;28;20074;-67
2023/06/13 11:08:23;;;;;;;2.83;1.60;;;19.80;93.30;;;;;;4934866;28;20058;-65
2023/06/13 11:10:55;;;;;;;2.25;2.03;;;19.70;94.60;;;;;;4936832;28;20078;-63
2023/06/13 11:13:30;;;;;;;2.42;1.65;;;19.80;95.00;;;;;;4936886;28;20474;-72
2023/06/13 11:16:20;;;;;;;3.28;2.10;;;19.80;94.10;;;;;;4938299;28;20043;-67
2023/06/13 11:18:48;;;;;;;2.05;1.60;;;19.70;93.60;;;;;;4940371;28;20051;-66
2023/06/13 11:21:15;;;;;;;4.78;1.83;;;19.70;94.00;;;;;;4938184;28;20035;-66
2023/06/13 11:23:53;;;;;;;2.50;1.42;;;19.80;93.70;;;;;;4938123;28;20054;-65
2023/06/13 11:26:21;;;;;;;1.92;1.83;;;19.80;94.10;;;;;;4933837;28;20046;-66
2023/06/13 11:28:50;;;;;;;2.08;1.92;;;19.80;94.00;;;;;;4938101;28;20055;-69
2023/06/13 11:31:18;;;;;;;4.82;1.80;;;19.80;94.00;;;;;;4939897;28;20072;-63
2023/06/13 11:33:48;;;;;;;3.05;2.00;;;19.80;93.20;;;;;;4934946;28;20158;-65
2023/06/13 11:36:16;;;;;;;4.28;2.42;;;19.80;93.10;;;;;;4933421;28;20122;-69
2023/06/13 11:39:12;;;;;;;2.75;2.30;;;20.00;93.20;;;;;;4935081;28;20576;-67
2023/06/13 11:41:40;;;;;;;2.20;2.00;;;20.30;92.00;;;;;;4931967;28;20047;-69
2023/06/13 11:44:08;;;;;;;2.75;1.75;;;20.20;92.40;;;;;;4940662;28;20478;-67
2023/06/13 11:46:41;;;;;;;3.47;2.33;;;20.30;91.50;;;;;;4942937;28;20051;-63
2023/06/13 11:49:13;;;;;;;1.92;1.55;;;20.30;92.10;;;;;;4936027;28;20043;-64
2023/06/13 11:51:41;;;;;;;2.25;1.65;;;20.40;91.90;;;;;;4939224;28;20768;-62
2023/06/13 11:54:10;;;;;;;3.65;2.10;;;20.40;91.80;;;;;;4933819;28;20043;-63
2023/06/13 11:56:49;;;;;;;6.35;1.80;;;20.40;92.10;;;;;;4943191;28;20130;-65
2023/06/13 11:59:18;;;;;;;2.20;1.55;;;20.50;92.10;;;;;;4940939;28;20042;-63
2023/06/13 12:01:52;;;;;;;1.85;1.60;;;20.70;91.50;;;;;;4941022;28;20067;-65
2023/06/13 12:04:22;;;;;;;3.75;1.83;;;20.70;91.50;;;;;;4943146;28;20035;-67
2023/06/13 12:06:53;;;;;;;2.08;1.88;;;20.90;91.30;;;;;;4946388;28;20055;-62
2023/06/13 12:09:20;;;;;;;4.53;2.03;;;20.90;90.80;;;;;;4945937;28;20062;-65
2023/06/13 12:11:47;;;;;;;8.73;1.73;;;21.00;90.50;;;;;;4947676;28;20474;-65
2023/06/13 12:14:18;;;;;;;4.65;1.65;;;21.00;90.20;;;;;;4942752;28;20079;-65
2023/06/13 12:16:49;;;;;;;6.43;3.15;;;21.00;89.70;;;;;;4940020;28;21587;-64
2023/06/13 12:19:20;;;;;;;1.88;1.70;;;21.00;90.30;;;;;;4943161;28;20047;-64
2023/06/13 12:21:50;;;;;;;4.13;1.90;;;21.10;90.20;;;;;;4943107;28;20039;-63
2023/06/13 12:24:19;;;;;;;2.83;2.58;;;21.20;90.00;;;;;;4945476;28;20046;-63
2023/06/13 12:26:47;;;;;;;2.15;1.67;;;21.30;89.00;;;;;;4941812;28;20812;-62
2023/06/13 12:29:16;;;;;;;3.88;1.75;;;21.20;89.10;;;;;;4941464;28;20094;-61
2023/06/13 12:31:47;;;;;;;3.47;1.80;;;21.20;89.50;;;;;;4937617;28;20132;-62
2023/06/13 12:34:35;;;;;;;4.93;1.83;;;21.20;89.40;;;;;;4938257;28;20420;-68
2023/06/13 12:37:04;;;;;;;4.07;1.80;;;21.30;88.40;;;;;;4943812;28;20043;-67
2023/06/13 12:39:32;;;;;;;6.10;2.83;;;21.40;87.90;;;;;;4935171;28;20075;-64
2023/06/13 12:42:04;;;;;;;1.40;1.30;;;21.60;87.50;;;;;;4938884;28;20043;-63
2023/06/13 12:44:35;;;;;;;2.05;1.60;;;21.60;87.40;;;;;;4938840;28;20107;-63
2023/06/13 12:47:03;;;;;;;2.78;2.42;;;21.50;86.70;;;;;;4944085;28;20131;-62
2023/06/13 12:49:38;;;;;;;1.95;1.33;;;21.50;88.40;;;;;;4953307;28;20432;-63
2023/06/13 12:52:15;;;;;;;2.92;1.60;;;21.50;87.60;;;;;;4939412;28;20039;-64
2023/06/13 12:54:42;;;;;;;7.35;3.03;;;21.40;87.30;;;;;;4941464;28;20221;-64
2023/06/13 12:57:11;;;;;;;1.98;1.58;;;21.40;87.00;;;;;;4939137;28;20074;-63
2023/06/13 12:59:45;;;;;;;2.67;1.42;;;21.50;86.00;;;;;;4942627;28;20114;-65
2023/06/13 13:02:16;;;;;;;3.35;2.55;;;21.50;85.30;;;;;;4941410;28;20047;-64
2023/06/13 13:04:44;;;;;;;2.05;1.85;;;21.50;84.10;;;;;;4938275;28;20047;-66